createdAt,value
2018-12-23T00:01:54.399Z,6.30
2018-12-23T00:04:23.373Z,6.00
2018-12-23T00:06:52.340Z,6.27
2018-12-23T00:09:21.357Z,6.20
2018-12-23T00:11:50.418Z,6.90
2018-12-23T00:14:19.424Z,10.10
2018-12-23T00:16:48.404Z,12.33
2018-12-23T00:19:17.421Z,10.50
2018-12-23T00:21:46.348Z,7.40
2018-12-23T00:24:15.354Z,7.53
2018-12-23T00:26:44.325Z,11.40
2018-12-23T00:29:13.310Z,12.37
2018-12-23T00:31:42.341Z,14.53
2018-12-23T00:34:11.322Z,15.23
2018-12-23T00:36:40.260Z,16.27
2018-12-23T00:39:09.301Z,19.43
2018-12-23T00:41:52.532Z,19.23
2018-12-23T00:44:21.562Z,17.63
2018-12-23T00:46:50.561Z,15.10
2018-12-23T00:49:19.536Z,16.10
2018-12-23T00:51:48.479Z,15.00
2018-12-23T00:54:17.774Z,8.93
2018-12-23T00:56:46.692Z,8.20
2018-12-23T00:59:15.711Z,8.77
2018-12-23T01:01:44.845Z,10.37
2018-12-23T01:04:13.810Z,8.20
2018-12-23T01:06:42.756Z,5.47
2018-12-23T01:09:11.814Z,5.20
2018-12-23T01:11:40.725Z,4.57
2018-12-23T01:14:09.626Z,4.20
2018-12-23T01:16:38.501Z,4.03
2018-12-23T01:19:07.429Z,3.23
2018-12-23T01:21:36.346Z,2.60
2018-12-23T01:24:05.325Z,2.80
2018-12-23T01:26:34.459Z,2.70
2018-12-23T01:29:03.385Z,3.03
2018-12-23T01:31:32.357Z,3.43
2018-12-23T01:34:01.305Z,3.30
2018-12-23T01:36:30.273Z,2.77
2018-12-23T01:38:59.297Z,3.80
2018-12-23T01:41:28.320Z,3.50
2018-12-23T01:43:57.398Z,3.60
2018-12-23T01:46:26.457Z,4.00
2018-12-23T01:48:55.481Z,2.93
2018-12-23T01:51:24.453Z,2.93
2018-12-23T01:53:53.468Z,4.07
2018-12-23T01:56:22.333Z,4.67
2018-12-23T01:58:51.361Z,3.87
2018-12-23T02:01:20.317Z,3.50
2018-12-23T02:03:49.338Z,3.27
2018-12-23T02:06:18.314Z,3.93
2018-12-23T02:08:47.286Z,3.10
2018-12-23T02:11:16.297Z,3.10
2018-12-23T02:13:45.255Z,4.07
2018-12-23T02:16:14.264Z,3.50
2018-12-23T02:18:43.246Z,2.90
2018-12-23T02:21:12.213Z,2.43
2018-12-23T02:23:41.241Z,3.17
2018-12-23T02:26:10.113Z,3.10
2018-12-23T02:28:39.090Z,2.67
2018-12-23T02:31:08.014Z,2.40
2018-12-23T02:33:37.080Z,3.60
2018-12-23T02:36:06.049Z,2.40
2018-12-23T02:38:34.986Z,2.73
2018-12-23T02:41:03.949Z,2.53
2018-12-23T02:43:32.801Z,2.50
2018-12-23T02:46:01.719Z,2.17
2018-12-23T02:48:30.627Z,2.33
2018-12-23T02:50:59.621Z,2.03
2018-12-23T02:53:28.512Z,2.70
2018-12-23T02:55:57.586Z,2.10
2018-12-23T02:58:26.532Z,2.63
2018-12-23T03:00:55.462Z,2.10
2018-12-23T03:03:24.489Z,2.77
2018-12-23T03:05:53.510Z,2.80
2018-12-23T03:08:22.543Z,2.60
2018-12-23T03:10:51.577Z,3.87
2018-12-23T03:13:20.626Z,2.90
2018-12-23T03:15:49.554Z,2.43
2018-12-23T03:18:18.439Z,2.40
2018-12-23T03:20:47.336Z,2.60
2018-12-23T03:23:16.444Z,2.90
2018-12-23T03:25:45.473Z,3.60
2018-12-23T03:28:14.416Z,3.90
2018-12-23T03:30:43.335Z,2.77
2018-12-23T03:33:12.319Z,3.60
2018-12-23T03:35:41.293Z,3.20
2018-12-23T03:38:10.241Z,3.77
2018-12-23T03:40:39.212Z,3.20
2018-12-23T03:43:08.278Z,3.97
2018-12-23T03:45:37.314Z,2.60
2018-12-23T03:48:06.261Z,3.40
2018-12-23T03:50:35.186Z,4.03
2018-12-23T03:53:04.261Z,4.27
2018-12-23T03:55:33.264Z,3.57
2018-12-23T03:58:02.518Z,5.03
2018-12-23T04:00:31.349Z,2.53
2018-12-23T04:03:00.338Z,2.80
2018-12-23T04:05:29.272Z,3.10
2018-12-23T04:07:58.297Z,2.70
2018-12-23T04:10:27.264Z,2.33
2018-12-23T04:12:56.380Z,2.43
2018-12-23T04:15:25.511Z,2.70
2018-12-23T04:17:54.554Z,3.80
2018-12-23T04:20:23.474Z,3.80
2018-12-23T04:22:52.496Z,3.50
2018-12-23T04:25:21.387Z,5.17
2018-12-23T04:27:50.321Z,4.00
2018-12-23T04:30:19.400Z,3.67
2018-12-23T04:32:48.389Z,2.67
2018-12-23T04:35:17.432Z,2.93
2018-12-23T04:37:46.307Z,2.70
2018-12-23T04:40:15.293Z,2.90
2018-12-23T04:42:44.313Z,2.50
2018-12-23T04:45:13.313Z,3.00
2018-12-23T04:47:42.295Z,1.73
2018-12-23T04:50:11.365Z,3.00
2018-12-23T04:52:40.390Z,2.47
2018-12-23T04:55:09.402Z,2.30
2018-12-23T04:57:38.472Z,3.37
2018-12-23T05:00:07.364Z,2.67
2018-12-23T05:02:36.382Z,2.00
2018-12-23T05:05:05.410Z,2.00
2018-12-23T05:07:34.411Z,4.10
2018-12-23T05:10:03.289Z,2.10
2018-12-23T05:12:32.252Z,2.00
2018-12-23T05:15:01.281Z,2.17
2018-12-23T05:17:30.214Z,2.20
2018-12-23T05:19:59.178Z,1.47
2018-12-23T05:22:28.146Z,2.10
2018-12-23T05:24:57.121Z,2.50
2018-12-23T05:27:26.114Z,2.80
2018-12-23T05:29:55.149Z,2.00
2018-12-23T05:32:24.126Z,1.97
2018-12-23T05:34:53.105Z,2.83
2018-12-23T05:37:22.022Z,2.53
2018-12-23T05:39:51.117Z,2.17
2018-12-23T05:42:20.141Z,1.63
2018-12-23T05:44:49.205Z,2.90
2018-12-23T05:47:18.358Z,1.60
2018-12-23T05:49:47.488Z,2.00
2018-12-23T05:52:16.553Z,2.23
2018-12-23T05:54:45.525Z,2.50
2018-12-23T05:57:14.546Z,2.57
2018-12-23T05:59:43.465Z,2.13
2018-12-23T06:02:12.406Z,2.57
2018-12-23T06:04:41.344Z,3.53
2018-12-23T06:07:10.270Z,3.53
2018-12-23T06:09:39.246Z,4.50
2018-12-23T06:12:08.162Z,3.27
2018-12-23T06:14:37.257Z,3.30
2018-12-23T06:17:06.285Z,4.70
2018-12-23T06:19:35.269Z,3.20
2018-12-23T06:22:04.238Z,3.20
2018-12-23T06:24:33.385Z,2.87
2018-12-23T06:27:02.316Z,2.77
2018-12-23T06:29:31.276Z,2.93
2018-12-23T06:32:00.308Z,2.40
2018-12-23T06:34:29.196Z,2.63
2018-12-23T06:36:58.177Z,2.67
2018-12-23T06:39:27.116Z,3.50
2018-12-23T06:41:56.054Z,2.23
2018-12-23T06:44:25.032Z,3.10
2018-12-23T06:46:53.949Z,2.33
2018-12-23T06:49:22.978Z,2.30
2018-12-23T06:51:52.008Z,2.80
2018-12-23T06:54:20.995Z,2.70
2018-12-23T06:56:50.006Z,2.97
2018-12-23T06:59:19.070Z,3.80
2018-12-23T07:01:47.906Z,2.20
2018-12-23T07:04:16.797Z,3.20
2018-12-23T07:06:45.822Z,2.23
2018-12-23T07:09:14.668Z,3.37
2018-12-23T07:11:43.568Z,4.60
2018-12-23T07:14:12.558Z,3.13
2018-12-23T07:16:41.677Z,3.73
2018-12-23T07:19:10.677Z,3.90
2018-12-23T07:21:39.629Z,3.53
2018-12-23T07:24:08.612Z,3.53
2018-12-23T07:26:37.586Z,3.90
2018-12-23T07:29:06.689Z,5.40
2018-12-23T07:31:35.757Z,5.83
2018-12-23T07:34:04.753Z,3.60
2018-12-23T07:36:33.736Z,3.43
2018-12-23T07:39:02.927Z,4.37
2018-12-23T07:41:32.072Z,5.33
2018-12-23T07:44:00.956Z,6.23
2018-12-23T07:46:29.998Z,5.80
2018-12-23T07:49:36.498Z,5.10
2018-12-23T07:52:06.390Z,6.83
2018-12-23T07:54:36.392Z,6.17
2018-12-23T07:57:06.264Z,6.60
2018-12-23T07:59:36.189Z,7.53
2018-12-23T08:02:06.270Z,6.73
2018-12-23T08:04:36.387Z,4.90
2018-12-23T08:07:06.358Z,7.50
2018-12-23T08:09:36.328Z,5.10
2018-12-23T08:12:06.460Z,6.00
2018-12-23T08:14:36.572Z,5.67
2018-12-23T08:17:06.494Z,6.23
2018-12-23T08:19:36.543Z,5.33
2018-12-23T08:22:06.519Z,6.27
2018-12-23T08:24:36.454Z,6.23
2018-12-23T08:27:06.357Z,6.33
2018-12-23T08:29:36.410Z,7.07
2018-12-23T08:32:06.384Z,6.77
2018-12-23T08:34:36.457Z,6.40
2018-12-23T08:37:06.469Z,9.67
2018-12-23T08:39:36.308Z,6.83
2018-12-23T08:42:06.210Z,4.53
2018-12-23T08:44:36.194Z,3.90
2018-12-23T08:47:06.070Z,3.90
2018-12-23T08:49:35.956Z,4.90
2018-12-23T08:52:05.906Z,3.93
2018-12-23T08:54:36.059Z,5.20
2018-12-23T08:57:06.053Z,4.60
2018-12-23T08:59:35.936Z,6.30
2018-12-23T09:02:05.874Z,5.73
2018-12-23T09:04:35.918Z,4.80
2018-12-23T09:07:05.809Z,4.87
2018-12-23T09:09:35.691Z,5.47
2018-12-23T09:12:05.529Z,4.63
2018-12-23T09:14:35.372Z,3.67
2018-12-23T09:17:05.292Z,4.80
2018-12-23T09:19:38.384Z,4.70
2018-12-23T09:22:08.499Z,4.40
2018-12-23T09:24:38.376Z,5.47
2018-12-23T09:27:08.275Z,4.17
2018-12-23T09:29:38.164Z,4.53
2018-12-23T09:32:08.128Z,5.40
2018-12-23T09:34:38.081Z,4.33
2018-12-23T09:37:07.957Z,5.03
2018-12-23T09:39:37.921Z,5.27
2018-12-23T09:42:07.991Z,5.30
2018-12-23T09:44:37.893Z,5.70
2018-12-23T09:47:07.824Z,7.03
2018-12-23T09:49:37.887Z,5.13
2018-12-23T09:52:07.741Z,4.90
2018-12-23T09:54:37.631Z,4.80
2018-12-23T09:57:07.552Z,8.17
2018-12-23T09:59:37.532Z,4.77
2018-12-23T10:02:07.516Z,3.60
2018-12-23T10:04:37.503Z,3.80
2018-12-23T10:07:07.448Z,3.20
2018-12-23T10:09:37.330Z,3.10
2018-12-23T10:12:07.290Z,3.83
2018-12-23T10:14:37.256Z,3.87
2018-12-23T10:17:07.152Z,3.30
2018-12-23T10:19:37.188Z,3.40
2018-12-23T10:22:07.040Z,2.97
2018-12-23T10:24:36.846Z,3.37
2018-12-23T10:27:06.794Z,4.77
2018-12-23T10:29:36.636Z,4.20
2018-12-23T10:32:06.479Z,5.13
2018-12-23T10:34:36.552Z,4.23
2018-12-23T10:37:06.528Z,4.90
2018-12-23T10:39:36.449Z,2.83
2018-12-23T10:42:06.454Z,2.70
2018-12-23T10:44:36.551Z,4.20
2018-12-23T10:47:06.598Z,4.27
2018-12-23T10:49:36.514Z,3.30
2018-12-23T10:52:06.451Z,3.20
2018-12-23T10:54:36.479Z,3.13
2018-12-23T10:57:06.379Z,4.10
2018-12-23T10:59:36.225Z,4.17
2018-12-23T11:02:13.481Z,3.40
2018-12-23T11:04:37.752Z,4.23
2018-12-23T11:07:07.672Z,3.47
2018-12-23T11:09:37.508Z,4.20
2018-12-23T11:12:07.323Z,2.97
2018-12-23T11:14:37.284Z,3.90
2018-12-23T11:17:07.171Z,4.70
2018-12-23T11:19:37.014Z,5.10
2018-12-23T11:22:07.040Z,3.70
2018-12-23T11:24:37.165Z,3.80
2018-12-23T11:27:06.275Z,5.23
2018-12-23T11:29:36.154Z,5.37
2018-12-23T11:32:06.036Z,4.13
2018-12-23T11:34:36.081Z,3.43
2018-12-23T11:37:06.139Z,4.20
2018-12-23T11:39:36.022Z,5.30
2018-12-23T11:42:05.915Z,4.20
2018-12-23T11:44:35.971Z,3.10
2018-12-23T11:47:05.909Z,3.70
2018-12-23T11:49:35.807Z,5.10
2018-12-23T11:52:05.720Z,4.60
2018-12-23T11:54:35.626Z,3.77
2018-12-23T11:57:05.553Z,4.50
2018-12-23T11:59:35.434Z,5.77
2018-12-23T12:02:05.467Z,6.27
2018-12-23T12:04:35.817Z,3.27
2018-12-23T12:07:05.934Z,4.00
2018-12-23T12:09:35.960Z,6.90
2018-12-23T12:12:05.864Z,3.90
2018-12-23T12:14:35.783Z,4.87
2018-12-23T12:17:05.679Z,5.50
2018-12-23T12:19:35.596Z,4.33
2018-12-23T12:22:05.489Z,3.60
2018-12-23T12:24:35.441Z,4.07
2018-12-23T12:27:05.437Z,4.43
2018-12-23T12:29:35.365Z,4.50
2018-12-23T12:32:05.188Z,3.93
2018-12-23T12:34:35.094Z,3.90
2018-12-23T12:37:04.968Z,4.80
2018-12-23T12:39:34.967Z,6.70
2018-12-23T12:42:04.957Z,5.33
2018-12-23T12:44:35.070Z,5.10
2018-12-23T12:47:04.959Z,5.13
2018-12-23T12:49:34.875Z,5.97
2018-12-23T12:52:05.025Z,5.63
2018-12-23T12:54:34.978Z,3.10
2018-12-23T12:57:04.895Z,4.13
2018-12-23T12:59:34.811Z,4.50
2018-12-23T13:02:04.669Z,5.70
2018-12-23T13:04:34.541Z,4.53
2018-12-23T13:07:04.507Z,7.43
2018-12-23T13:09:34.396Z,11.57
2018-12-23T13:12:04.254Z,8.33
2018-12-23T13:14:34.120Z,5.83
2018-12-23T13:17:04.145Z,5.53
2018-12-23T13:19:34.073Z,5.90
2018-12-23T13:22:04.032Z,5.00
2018-12-23T13:24:33.869Z,4.90
2018-12-23T13:27:04.784Z,4.70
2018-12-23T13:29:34.775Z,3.43
2018-12-23T13:32:04.704Z,3.67
2018-12-23T13:34:34.587Z,3.60
2018-12-23T13:37:04.515Z,4.63
2018-12-23T13:39:35.972Z,6.40
2018-12-23T13:42:45.197Z,6.57
2018-12-23T13:45:55.227Z,7.93
2018-12-23T13:49:13.901Z,7.47
2018-12-23T13:52:16.569Z,7.73
2018-12-23T13:55:16.222Z,7.13
2018-12-23T13:58:20.602Z,8.10
2018-12-23T14:01:13.113Z,7.07
2018-12-23T14:04:39.104Z,8.10
2018-12-23T14:07:36.253Z,9.90
2018-12-23T14:10:47.363Z,12.53
2018-12-23T14:13:17.232Z,9.97
2018-12-23T14:15:47.272Z,9.17
2018-12-23T14:18:17.205Z,9.70
2018-12-23T14:20:47.018Z,9.63
2018-12-23T14:23:17.033Z,10.07
2018-12-23T14:25:47.786Z,10.20
2018-12-23T14:28:17.680Z,11.30
2018-12-23T14:30:47.526Z,12.73
2018-12-23T14:33:17.446Z,11.30
2018-12-23T14:35:47.321Z,10.83
2018-12-23T14:38:17.163Z,8.03
2018-12-23T14:40:47.029Z,7.07
2018-12-23T14:43:16.913Z,10.13
2018-12-23T14:45:46.736Z,6.80
2018-12-23T14:48:16.653Z,10.17
2018-12-23T14:50:46.581Z,11.63
2018-12-23T14:53:16.502Z,10.50
2018-12-23T14:55:46.504Z,10.90
2018-12-23T14:58:16.500Z,9.13
2018-12-23T15:00:46.380Z,9.90
2018-12-23T15:03:16.355Z,24.00
2018-12-23T15:05:46.302Z,13.50
2018-12-23T15:08:16.269Z,12.00
2018-12-23T15:10:46.760Z,16.77
2018-12-23T15:13:17.970Z,13.50
2018-12-23T15:15:48.108Z,12.37
2018-12-23T15:18:17.948Z,10.27
2018-12-23T15:20:48.049Z,8.33
2018-12-23T15:23:18.131Z,9.67
2018-12-23T15:25:48.040Z,9.70
2018-12-23T15:28:18.060Z,10.03
2018-12-23T15:30:48.018Z,8.87
2018-12-23T15:33:17.992Z,9.53
2018-12-23T15:35:47.996Z,7.30
2018-12-23T15:38:18.017Z,5.63
2018-12-23T15:40:47.945Z,7.10
2018-12-23T15:43:17.960Z,7.77
2018-12-23T15:45:47.834Z,8.10
2018-12-23T15:48:17.683Z,8.70
2018-12-23T15:50:47.612Z,10.33
2018-12-23T15:53:17.517Z,16.67
2018-12-23T15:55:47.566Z,16.87
2018-12-23T15:58:17.565Z,7.57
2018-12-23T16:00:47.452Z,13.33
2018-12-23T16:03:17.323Z,9.60
2018-12-23T16:05:47.318Z,13.77
2018-12-23T16:08:17.191Z,7.53
2018-12-23T16:10:47.165Z,32.63
2018-12-23T16:13:17.111Z,7.60
2018-12-23T16:15:47.080Z,9.50
2018-12-23T16:18:17.080Z,9.67
2018-12-23T16:20:46.901Z,6.50
2018-12-23T16:23:16.870Z,7.07
2018-12-23T16:25:46.784Z,7.77
2018-12-23T16:28:16.714Z,8.40
2018-12-23T16:30:46.686Z,6.53
2018-12-23T16:33:16.595Z,6.20
2018-12-23T16:35:46.535Z,4.00
2018-12-23T16:38:16.492Z,5.37
2018-12-23T16:40:46.549Z,7.90
2018-12-23T16:43:16.493Z,8.60
2018-12-23T16:45:46.457Z,3.63
2018-12-23T16:48:16.486Z,4.77
2018-12-23T16:50:46.415Z,7.90
2018-12-23T16:53:16.214Z,4.90
2018-12-23T16:55:46.242Z,5.90
2018-12-23T16:58:16.330Z,6.03
2018-12-23T17:00:46.299Z,4.60
2018-12-23T17:03:16.184Z,3.70
2018-12-23T17:05:46.211Z,4.70
2018-12-23T17:08:16.057Z,6.37
2018-12-23T17:10:45.914Z,4.60
2018-12-23T17:13:16.013Z,6.70
2018-12-23T17:15:45.959Z,6.33
2018-12-23T17:18:15.946Z,6.17
2018-12-23T17:20:45.979Z,6.03
2018-12-23T17:23:15.895Z,6.50
2018-12-23T17:25:45.794Z,7.70
2018-12-23T17:28:15.810Z,7.33
2018-12-23T17:30:45.728Z,5.47
2018-12-23T17:33:15.736Z,9.23
2018-12-23T17:35:45.581Z,10.80
2018-12-23T17:38:15.558Z,9.93
2018-12-23T17:40:45.485Z,7.60
2018-12-23T17:43:15.352Z,7.77
2018-12-23T17:45:45.284Z,11.80
2018-12-23T17:48:15.291Z,12.50
2018-12-23T17:50:45.285Z,13.23
2018-12-23T17:53:15.369Z,11.90
2018-12-23T17:55:45.261Z,12.10
2018-12-23T17:58:15.202Z,9.67
2018-12-23T18:00:45.229Z,9.70
2018-12-23T18:03:15.238Z,9.50
2018-12-23T18:05:45.175Z,8.67
2018-12-23T18:08:15.273Z,6.37
2018-12-23T18:10:45.288Z,8.67
2018-12-23T18:13:15.229Z,9.43
2018-12-23T18:15:45.129Z,11.25
2018-12-23T18:18:15.076Z,8.63
2018-12-23T18:20:44.988Z,6.73
2018-12-23T18:23:14.895Z,5.33
2018-12-23T18:25:44.715Z,4.00
2018-12-23T18:28:14.596Z,3.83
2018-12-23T18:30:44.615Z,6.10
2018-12-23T18:33:14.531Z,4.80
2018-12-23T18:35:44.402Z,5.50
2018-12-23T18:38:14.365Z,4.40
2018-12-23T18:40:44.235Z,5.30
2018-12-23T18:43:14.090Z,6.53
2018-12-23T18:45:44.115Z,5.17
2018-12-23T18:48:14.039Z,10.87
2018-12-23T18:50:44.147Z,6.90
2018-12-23T18:53:13.972Z,4.27
2018-12-23T18:55:44.016Z,5.37
2018-12-23T18:58:13.943Z,4.30
2018-12-23T19:00:46.518Z,5.13
2018-12-23T19:03:16.504Z,6.10
2018-12-23T19:05:46.568Z,5.10
2018-12-23T19:08:21.105Z,5.20
2018-12-23T19:11:23.186Z,7.50
2018-12-23T19:14:43.281Z,7.90
2018-12-23T19:17:53.372Z,9.10
2018-12-23T19:21:14.169Z,9.43
2018-12-23T19:24:17.686Z,7.60
2018-12-23T19:27:40.306Z,6.47
2018-12-23T19:30:52.221Z,8.10
2018-12-23T19:34:23.900Z,5.77
2018-12-23T19:37:20.916Z,6.17
2018-12-23T19:40:26.426Z,6.33
2018-12-23T19:43:20.765Z,3.53
2018-12-23T19:46:43.714Z,5.43
2018-12-23T19:49:51.809Z,4.37
2018-12-23T19:53:06.309Z,6.00
2018-12-23T19:56:01.008Z,4.10
2018-12-23T19:59:10.120Z,5.33
2018-12-23T20:02:39.333Z,3.60
2018-12-23T20:05:44.690Z,5.10
2018-12-23T20:08:50.533Z,4.03
2018-12-23T20:12:13.099Z,4.43
2018-12-23T20:15:44.905Z,4.50
2018-12-23T20:19:01.120Z,5.00
2018-12-23T20:22:01.113Z,4.97
2018-12-23T20:25:04.230Z,6.37
2018-12-23T20:28:16.652Z,6.97
2018-12-23T20:31:31.531Z,8.10
2018-12-23T20:35:00.642Z,3.43
2018-12-23T20:37:55.678Z,5.23
2018-12-23T20:41:07.500Z,4.83
2018-12-23T20:44:11.090Z,4.50
2018-12-23T20:47:20.993Z,5.63
2018-12-23T20:50:33.659Z,5.60
2018-12-23T20:53:30.868Z,4.70
2018-12-23T20:56:38.915Z,5.20
2018-12-23T20:59:51.040Z,5.23
2018-12-23T21:03:00.519Z,5.87
2018-12-23T21:06:15.695Z,3.70
2018-12-23T21:09:38.148Z,7.97
2018-12-23T21:12:54.366Z,4.50
2018-12-23T21:16:13.871Z,6.90
2018-12-23T21:19:10.439Z,5.37
2018-12-23T21:22:10.496Z,5.80
2018-12-23T21:25:20.309Z,6.57
2018-12-23T21:28:18.996Z,3.03
2018-12-23T21:31:02.140Z,6.10
2018-12-23T21:34:37.266Z,5.13
2018-12-23T21:37:47.467Z,4.50
2018-12-23T21:40:54.715Z,5.33
2018-12-23T21:44:05.332Z,4.37
2018-12-23T21:47:10.038Z,12.80
2018-12-23T21:50:20.825Z,4.30
2018-12-23T21:53:24.773Z,3.13
2018-12-23T21:56:18.825Z,4.07
2018-12-23T21:59:11.645Z,4.63
2018-12-23T22:02:12.834Z,3.20
2018-12-23T22:05:35.755Z,4.00
2018-12-23T22:08:30.647Z,5.00
2018-12-23T22:11:20.993Z,4.07
2018-12-23T22:13:50.871Z,5.33
2018-12-23T22:16:20.745Z,4.17
2018-12-23T22:18:50.826Z,4.17
2018-12-23T22:21:20.883Z,3.70
2018-12-23T22:23:50.778Z,3.83
2018-12-23T22:26:20.671Z,3.30
2018-12-23T22:28:50.506Z,4.80
2018-12-23T22:31:20.649Z,3.13
2018-12-23T22:33:50.572Z,4.43
2018-12-23T22:36:20.418Z,3.97
2018-12-23T22:38:50.314Z,5.50
2018-12-23T22:41:23.803Z,4.93
2018-12-23T22:43:53.673Z,4.93
2018-12-23T22:46:23.573Z,4.17
2018-12-23T22:48:53.552Z,5.40
2018-12-23T22:51:23.472Z,6.10
2018-12-23T22:53:53.374Z,4.70
2018-12-23T22:56:23.232Z,5.13
2018-12-23T22:58:53.223Z,6.13
2018-12-23T23:01:23.089Z,4.80
2018-12-23T23:03:53.022Z,8.00
2018-12-23T23:06:22.977Z,11.30
2018-12-23T23:08:52.856Z,10.60
2018-12-23T23:11:22.997Z,7.97
2018-12-23T23:13:52.963Z,10.50
2018-12-23T23:16:22.811Z,9.03
2018-12-23T23:18:52.868Z,7.47
2018-12-23T23:21:22.860Z,11.20
2018-12-23T23:23:52.757Z,14.47
2018-12-23T23:26:22.782Z,11.43
2018-12-23T23:28:52.739Z,10.10
2018-12-23T23:31:22.615Z,14.13
2018-12-23T23:33:52.579Z,14.13
2018-12-23T23:36:22.490Z,19.47
2018-12-23T23:38:52.505Z,24.90
2018-12-23T23:41:22.478Z,20.27
2018-12-23T23:43:52.340Z,11.00
2018-12-23T23:46:22.145Z,16.70
2018-12-23T23:48:52.142Z,22.20
2018-12-23T23:51:22.023Z,26.50
2018-12-23T23:53:51.880Z,20.83
2018-12-23T23:56:21.828Z,18.67
2018-12-23T23:58:51.904Z,15.27
